Time;durP1;ratioP1;P1;durP2;ratioP2;P2;SDS_P1;SDS_P2;PMS_P1;PMS_P2;Temp;Humidity;BMP_temperature;BMP_pressure;BME280_temperature;BME280_humidity;BME280_pressure;Samples;Min_cycle;Max_cycle;Signal;HPM_P1;HPM_P2
2023/01/21 00:00:16;;;;;;;33.97;24.60;;;-0.20;99.90;;;;;;5011861;28;20029;-73
2023/01/21 00:02:41;;;;;;;30.35;24.98;;;-0.20;99.90;;;;;;5015686;28;20045;-73
2023/01/21 00:05:07;;;;;;;32.80;21.85;;;-0.30;99.90;;;;;;5013022;28;20556;-73
2023/01/21 00:07:33;;;;;;;25.63;20.45;;;-0.30;99.90;;;;;;5012374;28;20029;-73
2023/01/21 00:09:59;;;;;;;26.50;18.83;;;-0.40;99.90;;;;;;5012563;28;20030;-73
2023/01/21 00:12:24;;;;;;;31.20;21.90;;;-0.40;99.90;;;;;;5013662;28;20726;-73
2023/01/21 00:14:50;;;;;;;24.38;20.65;;;-0.40;99.90;;;;;;5011451;28;20060;-73
2023/01/21 00:17:16;;;;;;;22.48;17.20;;;-0.40;99.90;;;;;;5015535;28;20113;-73
2023/01/21 00:19:41;;;;;;;21.02;15.70;;;-0.50;99.90;;;;;;5014711;28;20474;-73
2023/01/21 00:22:07;;;;;;;18.65;15.35;;;-0.50;99.90;;;;;;5015366;28;20509;-73
2023/01/21 00:24:33;;;;;;;19.15;15.88;;;-0.30;99.90;;;;;;5008484;28;20057;-74
2023/01/21 00:26:58;;;;;;;21.35;14.93;;;-0.20;99.90;;;;;;5016109;28;20032;-73
2023/01/21 00:29:25;;;;;;;22.10;15.20;;;-0.10;99.90;;;;;;5008683;28;20089;-73
2023/01/21 00:31:50;;;;;;;18.10;14.88;;;0.10;99.90;;;;;;5015484;28;20026;-73
2023/01/21 00:34:16;;;;;;;21.02;15.70;;;0.10;99.90;;;;;;5013366;28;20030;-73
2023/01/21 00:36:42;;;;;;;19.77;15.05;;;0.20;99.90;;;;;;5016110;28;20026;-73
2023/01/21 00:39:08;;;;;;;15.95;14.18;;;0.20;99.90;;;;;;5008771;28;20437;-73
2023/01/21 00:41:33;;;;;;;19.48;14.23;;;0.20;99.90;;;;;;5017090;28;20101;-73
2023/01/21 00:43:59;;;;;;;17.08;14.77;;;0.20;99.90;;;;;;5010106;28;20033;-73
2023/01/21 00:46:26;;;;;;;15.82;13.82;;;0.20;99.90;;;;;;5015905;28;20036;-73
2023/01/21 00:48:51;;;;;;;20.00;14.43;;;0.20;99.90;;;;;;5007624;28;20034;-73
2023/01/21 00:51:17;;;;;;;23.95;14.02;;;0.20;99.90;;;;;;5015596;28;20603;-73
2023/01/21 00:53:43;;;;;;;17.63;12.57;;;0.20;99.90;;;;;;5008579;28;20087;-73
2023/01/21 00:56:11;;;;;;;23.90;12.50;;;0.20;99.90;;;;;;5015554;28;20032;-73
2023/01/21 00:58:37;;;;;;;21.92;13.30;;;0.30;99.90;;;;;;5012828;28;20030;-73
2023/01/21 01:01:08;;;;;;;22.98;12.73;;;0.20;99.90;;;;;;5022235;28;20018;-73
2023/01/21 01:03:35;;;;;;;17.65;11.57;;;0.30;99.90;;;;;;5018989;28;20053;-73
2023/01/21 01:06:02;;;;;;;24.80;15.60;;;0.30;99.90;;;;;;5019190;28;20029;-73
2023/01/21 01:08:28;;;;;;;15.82;12.52;;;0.30;99.90;;;;;;5018063;28;20034;-73
2023/01/21 01:10:54;;;;;;;15.13;12.65;;;0.30;99.90;;;;;;5020656;28;20029;-73
2023/01/21 01:13:19;;;;;;;16.42;13.32;;;0.30;99.90;;;;;;5018289;28;20030;-73
2023/01/21 01:15:46;;;;;;;22.98;13.85;;;0.20;99.90;;;;;;5022205;28;20121;-73
2023/01/21 01:18:12;;;;;;;20.85;13.60;;;0.20;99.90;;;;;;5020110;28;20548;-73
2023/01/21 01:20:42;;;;;;;15.50;12.15;;;0.20;99.90;;;;;;5022061;28;20022;-73
2023/01/21 01:23:07;;;;;;;14.10;11.88;;;0.20;99.90;;;;;;5020967;28;20061;-73
2023/01/21 01:25:34;;;;;;;16.08;12.73;;;0.10;99.90;;;;;;5023134;28;20041;-73
2023/01/21 01:27:59;;;;;;;15.70;13.52;;;0.10;99.90;;;;;;5019537;28;20029;-73
2023/01/21 01:30:25;;;;;;;13.07;11.63;;;0.10;99.90;;;;;;5015117;28;20033;-73
2023/01/21 01:32:51;;;;;;;18.13;13.90;;;0.10;99.90;;;;;;5020977;28;20063;-73
2023/01/21 01:35:16;;;;;;;14.70;12.50;;;0.10;99.90;;;;;;5016532;28;20030;-73
2023/01/21 01:37:42;;;;;;;18.30;13.50;;;0.00;99.90;;;;;;5020001;28;20030;-73
2023/01/21 01:40:09;;;;;;;13.00;11.52;;;0.10;99.90;;;;;;5017715;28;20024;-73
2023/01/21 01:42:35;;;;;;;14.00;12.15;;;0.00;99.90;;;;;;5020321;28;20544;-73
2023/01/21 01:45:06;;;;;;;16.25;11.80;;;0.00;99.90;;;;;;5018661;28;20022;-73
2023/01/21 01:47:45;;;;;;;14.43;11.85;;;0.00;99.90;;;;;;5019477;28;20030;-73
2023/01/21 01:50:16;;;;;;;21.60;13.60;;;0.00;99.90;;;;;;5011492;28;20063;-73
2023/01/21 01:52:43;;;;;;;13.05;11.75;;;0.00;99.90;;;;;;5017959;28;20560;-74
2023/01/21 01:55:11;;;;;;;15.73;11.65;;;0.00;99.90;;;;;;5013866;28;20033;-73
2023/01/21 01:57:45;;;;;;;13.02;11.02;;;0.00;99.90;;;;;;5017489;28;20054;-73
2023/01/21 02:00:12;;;;;;;14.85;11.13;;;0.00;99.90;;;;;;5016380;28;20017;-73
2023/01/21 02:02:39;;;;;;;16.20;12.65;;;0.00;99.90;;;;;;5018350;28;20027;-73
2023/01/21 02:05:09;;;;;;;14.60;11.40;;;0.00;99.90;;;;;;5016869;28;20437;-74
2023/01/21 02:07:38;;;;;;;18.40;11.48;;;0.10;99.90;;;;;;5011235;28;20032;-73
2023/01/21 02:10:07;;;;;;;18.05;12.48;;;0.10;99.90;;;;;;5019166;28;20053;-73
2023/01/21 02:12:34;;;;;;;16.98;13.35;;;0.00;99.90;;;;;;5015996;28;20486;-73
2023/01/21 02:15:00;;;;;;;14.88;12.30;;;0.00;99.90;;;;;;5014305;28;20022;-73
2023/01/21 02:18:06;;;;;;;18.35;12.27;;;-0.10;99.90;;;;;;5016980;28;20040;-73
2023/01/21 02:20:52;;;;;;;14.93;12.13;;;-0.10;99.90;;;;;;5013001;28;20053;-73
2023/01/21 02:23:38;;;;;;;15.45;12.70;;;-0.10;99.90;;;;;;5019034;28;20030;-73
2023/01/21 02:26:48;;;;;;;18.58;13.00;;;-0.10;99.90;;;;;;5018427;28;20048;-73
2023/01/21 02:29:34;;;;;;;18.00;12.90;;;-0.20;99.90;;;;;;5016087;28;20037;-73
2023/01/21 02:32:21;;;;;;;22.40;13.45;;;-0.20;99.90;;;;;;5000363;28;20096;-73
2023/01/21 02:35:05;;;;;;;15.73;12.85;;;-0.20;99.90;;;;;;5018793;28;20034;-73
2023/01/21 02:37:45;;;;;;;14.23;11.90;;;-0.20;99.90;;;;;;5015951;28;20077;-74
2023/01/21 02:40:32;;;;;;;18.38;13.00;;;-0.20;99.90;;;;;;5014027;28;20045;-73
2023/01/21 02:43:07;;;;;;;17.38;12.93;;;-0.20;99.90;;;;;;5016077;28;20026;-73
2023/01/21 02:45:50;;;;;;;23.85;13.13;;;-0.20;99.90;;;;;;5017144;28;20363;-73
2023/01/21 02:48:20;;;;;;;20.85;12.60;;;-0.20;99.90;;;;;;5003489;28;20718;-73
2023/01/21 02:50:51;;;;;;;15.82;12.30;;;-0.10;99.90;;;;;;5017548;28;20042;-73
2023/01/21 02:53:28;;;;;;;14.10;12.32;;;-0.10;99.90;;;;;;5010607;28;20026;-73
2023/01/21 02:55:57;;;;;;;12.95;11.02;;;0.00;99.90;;;;;;5012587;28;20042;-73
2023/01/21 02:58:30;;;;;;;14.32;11.07;;;0.10;99.90;;;;;;5011477;28;20067;-73
2023/01/21 03:00:56;;;;;;;12.82;11.38;;;0.20;99.90;;;;;;5013754;28;20026;-73
2023/01/21 03:03:34;;;;;;;20.80;11.57;;;0.20;99.90;;;;;;5012269;28;20036;-73
2023/01/21 03:06:17;;;;;;;14.15;11.25;;;0.30;99.90;;;;;;5014950;28;20022;-73
2023/01/21 03:08:55;;;;;;;15.18;10.35;;;0.30;99.90;;;;;;5013900;28;20021;-73
2023/01/21 03:11:22;;;;;;;10.90;9.85;;;0.30;99.90;;;;;;5017188;28;20026;-73
2023/01/21 03:16:56;;;;;;;13.20;9.38;;;0.40;99.90;;;;;;5018352;28;20028;-73
2023/01/21 03:19:33;;;;;;;10.48;9.48;;;0.50;99.90;;;;;;5015038;28;20093;-73
2023/01/21 03:22:03;;;;;;;11.27;9.57;;;0.60;99.90;;;;;;5015942;28;20045;-73
2023/01/21 03:24:30;;;;;;;10.32;9.32;;;0.60;99.90;;;;;;5009014;28;20084;-73
2023/01/21 03:26:59;;;;;;;10.48;9.32;;;0.70;99.90;;;;;;5008404;28;20022;-73
2023/01/21 03:29:27;;;;;;;15.90;10.20;;;0.70;99.90;;;;;;5008800;28;20037;-73
2023/01/21 03:31:58;;;;;;;11.50;8.35;;;0.80;99.90;;;;;;5017949;28;20072;-73
2023/01/21 03:34:26;;;;;;;10.48;8.93;;;0.80;99.90;;;;;;5013671;28;20041;-73
2023/01/21 03:37:21;;;;;;;9.48;8.50;;;0.80;99.90;;;;;;5018003;28;20022;-73
2023/01/21 03:40:03;;;;;;;16.05;9.45;;;0.90;99.90;;;;;;5012360;28;20048;-73
2023/01/21 03:42:29;;;;;;;9.63;8.63;;;0.90;99.90;;;;;;5014999;28;20129;-73
2023/01/21 03:44:55;;;;;;;11.65;8.80;;;0.90;99.90;;;;;;5013321;28;20054;-73
2023/01/21 03:47:34;;;;;;;13.95;8.88;;;0.90;99.90;;;;;;5014142;28;20398;-73
2023/01/21 03:50:03;;;;;;;19.25;11.02;;;0.90;99.90;;;;;;5006923;28;20034;-73
2023/01/21 03:52:29;;;;;;;13.63;9.90;;;0.80;99.90;;;;;;5026240;28;20033;-73
2023/01/21 03:54:54;;;;;;;11.57;10.20;;;0.80;99.90;;;;;;5003953;28;20026;-73
2023/01/21 03:57:20;;;;;;;15.52;10.18;;;0.80;99.90;;;;;;5013230;28;20121;-73
2023/01/21 03:59:46;;;;;;;11.20;10.00;;;0.70;99.90;;;;;;5009747;28;20030;-73
2023/01/21 04:02:12;;;;;;;14.65;10.15;;;0.70;99.90;;;;;;5015081;28;20067;-73
2023/01/21 04:04:37;;;;;;;11.70;9.15;;;0.60;99.90;;;;;;5007885;28;20019;-73
2023/01/21 04:07:03;;;;;;;16.33;11.23;;;0.60;99.90;;;;;;5011855;28;20038;-73
2023/01/21 04:09:29;;;;;;;12.05;10.45;;;0.70;99.90;;;;;;5009191;28;20102;-73
2023/01/21 04:11:55;;;;;;;15.00;10.27;;;0.70;99.90;;;;;;5015055;28;20120;-73
2023/01/21 04:14:20;;;;;;;12.98;11.10;;;0.70;99.90;;;;;;5010003;28;20022;-73
2023/01/21 04:16:46;;;;;;;12.32;10.77;;;0.70;99.90;;;;;;5017493;28;20045;-73
2023/01/21 04:19:12;;;;;;;16.30;11.25;;;0.60;99.90;;;;;;5013229;28;20072;-73
2023/01/21 04:21:37;;;;;;;10.73;9.02;;;0.60;99.90;;;;;;5017433;28;20496;-73
2023/01/21 04:24:03;;;;;;;10.52;9.57;;;0.70;99.90;;;;;;5014707;28;20026;-73
2023/01/21 04:26:29;;;;;;;12.52;9.05;;;0.70;99.90;;;;;;5017453;28;20417;-73
2023/01/21 04:28:55;;;;;;;10.07;9.10;;;0.70;99.90;;;;;;5008006;28;20118;-73
2023/01/21 04:31:20;;;;;;;12.25;9.20;;;0.70;99.90;;;;;;5017400;28;20038;-73
2023/01/21 04:33:46;;;;;;;10.13;9.15;;;0.70;99.90;;;;;;5009467;28;20455;-73
2023/01/21 04:36:12;;;;;;;9.73;8.73;;;0.70;99.90;;;;;;5017042;28;20030;-73
2023/01/21 04:38:38;;;;;;;11.65;9.10;;;0.70;99.90;;;;;;5008877;28;20027;-72
2023/01/21 04:41:04;;;;;;;14.88;10.95;;;0.70;99.90;;;;;;5016445;28;20029;-73
2023/01/21 04:43:29;;;;;;;14.05;10.18;;;0.70;99.90;;;;;;5011569;28;20523;-73
2023/01/21 04:45:55;;;;;;;14.90;9.32;;;0.70;99.90;;;;;;5014316;28;20494;-73
2023/01/21 04:48:21;;;;;;;12.82;9.68;;;0.70;99.90;;;;;;5009909;28;20025;-73
2023/01/21 04:50:46;;;;;;;16.27;9.55;;;0.70;99.90;;;;;;5014646;28;20056;-73
2023/01/21 04:53:12;;;;;;;14.27;9.85;;;0.70;99.90;;;;;;5009793;28;20032;-72
2023/01/21 04:55:38;;;;;;;10.43;8.82;;;0.70;99.90;;;;;;5013268;28;20034;-73
2023/01/21 04:58:03;;;;;;;33.95;16.88;;;0.70;99.90;;;;;;5009126;28;20528;-73
2023/01/21 05:00:29;;;;;;;21.45;10.23;;;0.80;99.90;;;;;;5013145;28;20030;-73
2023/01/21 05:02:55;;;;;;;13.10;9.10;;;0.80;99.90;;;;;;5010965;28;20046;-73
2023/01/21 05:05:21;;;;;;;13.98;9.15;;;0.80;99.90;;;;;;5015307;28;20666;-72
2023/01/21 05:07:47;;;;;;;12.02;8.70;;;0.90;99.90;;;;;;5010636;28;20118;-72
2023/01/21 05:10:16;;;;;;;12.40;9.27;;;0.90;99.90;;;;;;5014478;28;20075;-73
2023/01/21 05:12:42;;;;;;;11.13;9.03;;;0.90;99.90;;;;;;5010821;28;20038;-73
2023/01/21 05:15:08;;;;;;;35.22;19.38;;;0.90;99.90;;;;;;5014702;28;20272;-73
2023/01/21 05:17:34;;;;;;;76.72;32.92;;;0.90;99.90;;;;;;5011362;28;20030;-73
2023/01/21 05:20:00;;;;;;;10.15;9.10;;;0.90;99.90;;;;;;5014666;28;20030;-73
2023/01/21 05:22:25;;;;;;;11.77;9.10;;;0.80;99.90;;;;;;5011385;28;20125;-73
2023/01/21 05:24:51;;;;;;;10.40;9.10;;;0.80;99.90;;;;;;5012569;28;20049;-73
2023/01/21 05:27:18;;;;;;;13.13;9.43;;;0.80;99.90;;;;;;5013520;28;20026;-73
2023/01/21 05:29:44;;;;;;;10.60;9.27;;;0.80;99.90;;;;;;5014097;28;20049;-73
2023/01/21 05:32:10;;;;;;;15.00;10.30;;;0.70;99.90;;;;;;5014130;28;20022;-73
2023/01/21 05:34:35;;;;;;;9.48;8.68;;;0.70;99.90;;;;;;5011478;28;20393;-73
2023/01/21 05:37:01;;;;;;;9.98;8.50;;;0.70;99.90;;;;;;5014690;28;20079;-73
2023/01/21 05:39:27;;;;;;;8.05;7.32;;;0.80;99.90;;;;;;5011280;28;20033;-73
2023/01/21 05:41:52;;;;;;;19.08;7.95;;;0.90;99.90;;;;;;5014279;28;20018;-73
2023/01/21 05:44:18;;;;;;;9.75;7.53;;;1.00;99.90;;;;;;5010139;28;20105;-73
2023/01/21 05:46:44;;;;;;;11.40;8.07;;;1.10;99.90;;;;;;5018101;28;20041;-73
2023/01/21 05:49:10;;;;;;;7.40;6.70;;;1.10;99.90;;;;;;5013026;28;20022;-73
2023/01/21 05:51:35;;;;;;;19.80;9.40;;;1.20;99.90;;;;;;5019232;28;20042;-73
2023/01/21 05:54:01;;;;;;;8.90;7.97;;;1.30;99.90;;;;;;5013626;28;20056;-73
2023/01/21 05:56:27;;;;;;;8.82;7.00;;;1.30;99.90;;;;;;5018335;28;20412;-73
2023/01/21 05:58:52;;;;;;;12.10;8.55;;;1.40;99.90;;;;;;5014426;28;20076;-73
2023/01/21 06:01:18;;;;;;;7.32;6.72;;;1.30;99.90;;;;;;5017619;28;20042;-73
2023/01/21 06:03:44;;;;;;;7.45;6.38;;;1.40;99.90;;;;;;5014030;28;20032;-73
2023/01/21 06:06:09;;;;;;;8.50;7.80;;;1.40;99.90;;;;;;5017766;28;20155;-72
2023/01/21 06:08:35;;;;;;;8.00;7.20;;;1.30;99.90;;;;;;5017588;28;20036;-73
2023/01/21 06:11:01;;;;;;;11.27;6.68;;;1.40;99.90;;;;;;5018084;28;20022;-74
2023/01/21 06:13:27;;;;;;;8.70;6.97;;;1.40;99.90;;;;;;5015169;28;20038;-73
2023/01/21 06:15:55;;;;;;;8.25;6.70;;;1.40;99.90;;;;;;5018116;28;20025;-72
2023/01/21 06:18:22;;;;;;;7.93;7.20;;;1.40;99.90;;;;;;5015936;28;20026;-73
2023/01/21 06:20:48;;;;;;;8.98;7.43;;;1.40;99.90;;;;;;5014619;28;20089;-72
2023/01/21 06:23:14;;;;;;;8.63;7.82;;;1.30;99.90;;;;;;5015159;28;20521;-73
2023/01/21 06:25:39;;;;;;;11.60;6.55;;;1.20;99.90;;;;;;5007224;28;20105;-73
2023/01/21 06:28:05;;;;;;;7.40;6.65;;;1.20;99.90;;;;;;5015917;28;20076;-73
2023/01/21 06:30:31;;;;;;;7.40;6.40;;;1.20;99.90;;;;;;5014065;28;20054;-73
2023/01/21 06:32:57;;;;;;;7.93;7.22;;;1.20;99.90;;;;;;5012230;28;20034;-73
2023/01/21 06:35:23;;;;;;;9.70;7.10;;;1.20;99.90;;;;;;5002886;28;20054;-73
2023/01/21 06:37:49;;;;;;;9.93;7.47;;;1.20;99.90;;;;;;5013974;28;20030;-73
2023/01/21 06:40:15;;;;;;;10.68;7.53;;;1.20;99.90;;;;;;5008457;28;20027;-73
2023/01/21 06:42:43;;;;;;;11.07;8.40;;;1.10;99.90;;;;;;5013142;28;20029;-73
2023/01/21 06:45:09;;;;;;;12.57;7.65;;;1.10;99.90;;;;;;5017234;28;20022;-73
2023/01/21 06:47:35;;;;;;;12.77;7.68;;;1.10;99.90;;;;;;5015824;28;20116;-73
2023/01/21 06:50:01;;;;;;;7.82;7.22;;;1.10;99.90;;;;;;5014965;28;20117;-73
2023/01/21 06:52:26;;;;;;;8.55;7.75;;;1.10;99.90;;;;;;5016997;28;20430;-73
2023/01/21 06:54:52;;;;;;;8.70;7.82;;;1.00;99.90;;;;;;5015425;28;20018;-73
2023/01/21 06:57:18;;;;;;;8.27;7.47;;;1.00;99.90;;;;;;5015319;28;20073;-73
2023/01/21 06:59:43;;;;;;;9.00;7.63;;;1.00;99.90;;;;;;5016214;28;20014;-73
2023/01/21 07:02:11;;;;;;;9.38;8.55;;;1.00;99.90;;;;;;5015749;28;20033;-73
2023/01/21 07:04:37;;;;;;;9.20;7.45;;;1.00;99.90;;;;;;5010140;28;20635;-73
2023/01/21 07:07:03;;;;;;;10.68;7.40;;;1.00;99.90;;;;;;5017776;28;20065;-72
2023/01/21 07:09:28;;;;;;;8.38;7.55;;;1.00;99.90;;;;;;5013692;28;20026;-73
2023/01/21 07:11:54;;;;;;;9.43;7.95;;;1.00;99.90;;;;;;5017288;28;20030;-73
2023/01/21 07:14:20;;;;;;;8.65;7.07;;;1.00;99.90;;;;;;5015900;28;20026;-73
2023/01/21 07:16:45;;;;;;;8.13;7.30;;;1.00;99.90;;;;;;5017382;28;20040;-73
2023/01/21 07:19:11;;;;;;;9.70;8.73;;;1.00;99.90;;;;;;5015057;28;20490;-73
2023/01/21 07:21:40;;;;;;;9.50;8.00;;;1.00;99.90;;;;;;5018151;28;20030;-73
2023/01/21 07:24:06;;;;;;;12.82;7.63;;;1.00;99.90;;;;;;5013089;28;20022;-73
2023/01/21 07:26:36;;;;;;;13.15;7.63;;;1.00;99.90;;;;;;5018389;28;20030;-73
2023/01/21 07:29:08;;;;;;;9.45;8.55;;;1.00;99.90;;;;;;5005224;28;20049;-73
2023/01/21 07:31:34;;;;;;;8.75;7.53;;;1.00;99.90;;;;;;5008437;28;20026;-73
2023/01/21 07:34:00;;;;;;;8.82;7.93;;;1.00;99.90;;;;;;5011259;28;20036;-73
2023/01/21 07:36:25;;;;;;;16.17;8.10;;;1.00;99.90;;;;;;5018259;28;20021;-73
2023/01/21 07:38:52;;;;;;;9.55;8.50;;;1.00;99.90;;;;;;5011677;28;20033;-73
2023/01/21 07:41:18;;;;;;;10.63;7.40;;;1.00;99.90;;;;;;5018315;28;20017;-73
2023/01/21 07:43:46;;;;;;;11.02;8.80;;;1.00;99.90;;;;;;5009742;28;20037;-73
2023/01/21 07:46:18;;;;;;;10.20;8.45;;;1.00;99.90;;;;;;5018110;28;20022;-73
2023/01/21 07:48:46;;;;;;;13.43;9.68;;;1.00;99.90;;;;;;5012157;28;20030;-73
2023/01/21 07:51:11;;;;;;;12.00;8.27;;;1.10;99.90;;;;;;5014121;28;20450;-74
2023/01/21 07:53:37;;;;;;;10.07;8.45;;;1.00;99.90;;;;;;5008536;28;20061;-73
2023/01/21 07:56:06;;;;;;;8.23;7.40;;;1.00;99.90;;;;;;5012703;28;20029;-73
2023/01/21 07:58:32;;;;;;;10.85;7.22;;;1.10;99.90;;;;;;5010941;28;20033;-73
2023/01/21 08:01:01;;;;;;;11.32;7.45;;;1.10;99.90;;;;;;5011550;28;20018;-73
2023/01/21 08:03:27;;;;;;;8.07;6.72;;;1.20;99.90;;;;;;5011612;28;20022;-73
2023/01/21 08:05:53;;;;;;;9.00;7.05;;;1.20;99.90;;;;;;5013646;28;20106;-73
2023/01/21 08:08:18;;;;;;;9.25;6.75;;;1.20;99.90;;;;;;5011965;28;20034;-74
2023/01/21 08:10:53;;;;;;;7.85;6.70;;;1.30;99.90;;;;;;5015724;28;20017;-74
2023/01/21 08:13:21;;;;;;;9.35;7.32;;;1.30;99.90;;;;;;5011645;28;20034;-73
2023/01/21 08:15:51;;;;;;;10.32;6.82;;;1.30;99.90;;;;;;5014742;28;20018;-73
2023/01/21 08:18:17;;;;;;;7.97;7.03;;;1.40;99.90;;;;;;5012535;28;20026;-73
2023/01/21 08:20:43;;;;;;;8.45;7.60;;;1.40;99.90;;;;;;5023378;28;20041;-73
2023/01/21 08:23:09;;;;;;;9.10;7.97;;;1.40;99.90;;;;;;5014370;28;20022;-73
2023/01/21 08:25:34;;;;;;;12.02;8.13;;;1.40;99.90;;;;;;5016334;28;20076;-73
2023/01/21 08:28:00;;;;;;;8.70;7.80;;;1.40;99.90;;;;;;5011986;28;20529;-73
2023/01/21 08:30:26;;;;;;;7.10;6.40;;;1.40;99.90;;;;;;5012946;28;20101;-73
2023/01/21 08:32:52;;;;;;;7.82;7.13;;;1.40;99.90;;;;;;5013757;28;20555;-73
2023/01/21 08:35:17;;;;;;;7.72;7.03;;;1.50;99.90;;;;;;5014870;28;20064;-73
2023/01/21 08:37:43;;;;;;;7.80;7.10;;;1.50;99.90;;;;;;5013946;28;20568;-73
2023/01/21 08:40:10;;;;;;;9.85;7.38;;;1.50;99.90;;;;;;5013064;28;20018;-73
2023/01/21 08:42:35;;;;;;;10.52;7.28;;;1.50;99.90;;;;;;5012614;28;20030;-73
2023/01/21 08:45:01;;;;;;;11.88;8.48;;;1.60;99.90;;;;;;5013970;28;20022;-73
2023/01/21 08:47:27;;;;;;;11.80;7.78;;;1.60;99.90;;;;;;5013618;28;20085;-73
2023/01/21 08:49:53;;;;;;;11.77;7.43;;;1.70;99.90;;;;;;5014277;28;20021;-74
2023/01/21 08:52:20;;;;;;;9.77;8.63;;;1.80;99.90;;;;;;5010202;28;20035;-73
2023/01/21 08:54:46;;;;;;;11.73;8.38;;;1.90;99.90;;;;;;5012915;28;20413;-73
2023/01/21 08:57:11;;;;;;;8.00;7.20;;;1.90;99.90;;;;;;5013810;28;20026;-73
2023/01/21 08:59:38;;;;;;;9.65;7.43;;;2.00;99.90;;;;;;5014278;28;20025;-73
2023/01/21 09:02:03;;;;;;;7.75;7.05;;;2.10;99.90;;;;;;5013893;28;20014;-74
2023/01/21 09:04:29;;;;;;;7.40;6.40;;;2.20;99.90;;;;;;5011459;28;20033;-73
2023/01/21 09:06:55;;;;;;;7.78;6.80;;;2.20;99.90;;;;;;5016142;28;20097;-73
2023/01/21 09:09:20;;;;;;;8.68;6.93;;;2.30;99.90;;;;;;5012801;28;20038;-73
2023/01/21 09:11:46;;;;;;;8.27;7.30;;;2.30;99.90;;;;;;5015552;28;20096;-73
2023/01/21 09:14:12;;;;;;;6.93;6.25;;;2.40;99.90;;;;;;5013081;28;20034;-73
2023/01/21 09:16:38;;;;;;;7.28;6.68;;;2.40;99.90;;;;;;5015622;28;20026;-73
2023/01/21 09:19:04;;;;;;;11.02;6.28;;;2.50;99.90;;;;;;5015197;28;20076;-73
2023/01/21 09:21:30;;;;;;;9.57;7.32;;;2.50;99.90;;;;;;5019263;28;20030;-73
2023/01/21 09:23:56;;;;;;;8.30;5.80;;;2.60;99.90;;;;;;5018299;28;20034;-73
2023/01/21 09:26:22;;;;;;;10.45;6.57;;;2.60;99.90;;;;;;5016225;28;20022;-73
2023/01/21 09:28:57;;;;;;;7.47;6.63;;;2.60;99.90;;;;;;5016102;28;20040;-73
2023/01/21 09:31:24;;;;;;;8.95;6.55;;;2.70;99.90;;;;;;5033829;28;20026;-73
2023/01/21 09:33:53;;;;;;;13.43;8.75;;;2.60;99.90;;;;;;5018675;28;20509;-73
2023/01/21 09:36:21;;;;;;;6.70;6.07;;;2.60;99.90;;;;;;5018119;28;20547;-73
2023/01/21 09:38:48;;;;;;;11.02;7.78;;;2.60;99.90;;;;;;5016796;28;20026;-74
2023/01/21 09:41:44;;;;;;;9.00;7.65;;;2.60;99.90;;;;;;5018989;28;20044;-73
2023/01/21 09:44:25;;;;;;;10.27;7.50;;;2.50;99.90;;;;;;5014671;28;21249;-73
2023/01/21 09:46:54;;;;;;;;;;;2.50;99.90;;;;;;5018500;28;20046;-74
2023/01/21 09:49:40;;;;;;;15.27;8.45;;;2.50;99.90;;;;;;5016963;28;20289;-75
2023/01/21 09:52:38;;;;;;;8.63;7.18;;;2.50;99.90;;;;;;5016241;28;20085;-74
2023/01/21 09:55:10;;;;;;;12.35;8.05;;;2.50;99.90;;;;;;5018063;28;20028;-71
2023/01/21 09:57:55;;;;;;;9.15;7.82;;;2.50;99.90;;;;;;5017313;28;20033;-71
2023/01/21 10:00:40;;;;;;;8.98;8.18;;;2.50;99.90;;;;;;5033180;28;20110;-74
2023/01/21 10:03:28;;;;;;;10.23;9.18;;;2.50;99.90;;;;;;5012762;28;20497;-75
2023/01/21 10:05:57;;;;;;;11.13;7.57;;;2.50;99.90;;;;;;5017764;28;20034;-74
2023/01/21 10:09:10;;;;;;;19.00;9.63;;;2.50;99.90;;;;;;5016225;28;20018;-74
2023/01/21 10:11:59;;;;;;;9.98;7.28;;;2.40;99.90;;;;;;4995276;28;20182;-74
2023/01/21 10:14:37;;;;;;;11.05;6.70;;;2.50;99.90;;;;;;5012104;28;20399;-74
2023/01/21 10:17:18;;;;;;;8.40;7.60;;;2.50;99.90;;;;;;5009964;28;20112;-75
2023/01/21 10:19:51;;;;;;;13.50;7.50;;;2.50;99.90;;;;;;5016801;28;20064;-75
2023/01/21 10:22:26;;;;;;;8.95;7.85;;;2.60;99.90;;;;;;5015223;28;20046;-74
2023/01/21 10:25:23;;;;;;;10.60;7.38;;;2.60;99.90;;;;;;5017494;28;20034;-75
2023/01/21 10:27:48;;;;;;;6.22;5.72;;;2.60;99.90;;;;;;5016426;28;20042;-74
2023/01/21 10:30:22;;;;;;;11.13;7.03;;;2.50;99.90;;;;;;5017034;28;20057;-75
2023/01/21 10:32:51;;;;;;;15.18;9.70;;;2.50;99.90;;;;;;5016064;28;20089;-74
2023/01/21 10:35:20;;;;;;;8.73;7.53;;;2.50;99.90;;;;;;5016888;28;20049;-73
2023/01/21 10:38:04;;;;;;;7.70;7.00;;;2.60;99.90;;;;;;5017100;28;20072;-73
2023/01/21 10:40:47;;;;;;;9.27;7.45;;;2.60;99.90;;;;;;5015055;28;20034;-73
2023/01/21 10:43:41;;;;;;;14.20;8.52;;;2.70;99.90;;;;;;5013868;28;20013;-73
2023/01/21 10:46:20;;;;;;;10.35;7.07;;;2.70;99.90;;;;;;5016278;28;20464;-74
2023/01/21 10:49:14;;;;;;;11.98;7.15;;;2.80;99.90;;;;;;5015067;28;20018;-73
2023/01/21 10:51:53;;;;;;;10.02;8.05;;;2.80;99.90;;;;;;5015498;28;20117;-74
2023/01/21 10:54:36;;;;;;;12.18;7.07;;;2.90;99.90;;;;;;5014404;28;20030;-73
2023/01/21 10:57:19;;;;;;;12.27;8.43;;;3.00;99.90;;;;;;5015332;28;20026;-73
2023/01/21 10:59:46;;;;;;;14.57;8.10;;;2.90;99.90;;;;;;5015394;28;20022;-74
2023/01/21 11:02:24;;;;;;;11.40;7.60;;;2.90;99.90;;;;;;5016091;28;20046;-73
2023/01/21 11:04:50;;;;;;;10.88;7.03;;;3.00;99.90;;;;;;5016570;28;20554;-74
2023/01/21 11:07:19;;;;;;;9.15;7.70;;;3.00;99.90;;;;;;5014466;28;20071;-73
2023/01/21 11:09:46;;;;;;;8.23;7.43;;;3.10;99.90;;;;;;5015063;28;20501;-73
2023/01/21 11:12:17;;;;;;;7.15;6.50;;;3.10;99.90;;;;;;5013425;28;20120;-74
2023/01/21 11:14:53;;;;;;;9.60;6.28;;;3.20;99.90;;;;;;5024665;28;20029;-73
2023/01/21 11:17:35;;;;;;;7.00;6.15;;;3.40;99.90;;;;;;5016486;28;20096;-75
2023/01/21 11:20:15;;;;;;;12.30;7.43;;;3.50;99.90;;;;;;5015281;28;20425;-74
2023/01/21 11:22:45;;;;;;;8.80;7.90;;;3.70;99.90;;;;;;5014434;28;20041;-73
2023/01/21 11:25:40;;;;;;;8.65;6.95;;;3.80;99.90;;;;;;5016065;28;20029;-74
2023/01/21 11:28:25;;;;;;;8.52;7.70;;;3.90;99.90;;;;;;5014458;28;20091;-73
2023/01/21 11:31:14;;;;;;;7.45;6.60;;;3.90;99.90;;;;;;5027809;28;20091;-73
2023/01/21 11:33:42;;;;;;;10.15;6.47;;;3.90;99.90;;;;;;5011900;28;20483;-74
2023/01/21 11:36:19;;;;;;;9.05;5.95;;;3.90;99.90;;;;;;5012446;28;20053;-74
2023/01/21 11:38:47;;;;;;;7.55;6.50;;;3.90;99.90;;;;;;5014892;28;20030;-73
2023/01/21 11:41:18;;;;;;;7.55;6.75;;;4.00;99.90;;;;;;5017105;28;20079;-73
2023/01/21 11:43:46;;;;;;;10.45;5.95;;;4.00;99.90;;;;;;5014566;28;20033;-74
2023/01/21 11:46:37;;;;;;;12.45;6.95;;;4.10;99.90;;;;;;5016898;28;20022;-74
2023/01/21 11:49:05;;;;;;;;;;;4.10;99.90;;;;;;5014460;28;20032;-74
2023/01/21 11:51:35;;;;;;;6.85;5.93;;;4.20;99.90;;;;;;5013129;28;19943;-74
2023/01/21 11:54:17;;;;;;;10.95;8.15;;;4.20;99.90;;;;;;5013360;28;20069;-74
2023/01/21 11:56:56;;;;;;;12.00;8.38;;;4.30;99.90;;;;;;5014560;28;20048;-74
2023/01/21 11:59:32;;;;;;;11.50;7.47;;;4.20;99.90;;;;;;5011200;28;20030;-74
2023/01/21 12:02:09;;;;;;;10.80;7.78;;;4.10;99.90;;;;;;5015167;28;20041;-75
2023/01/21 12:04:36;;;;;;;12.52;7.85;;;4.00;99.90;;;;;;5019250;28;20052;-74
2023/01/21 12:07:04;;;;;;;13.07;10.00;;;4.00;99.90;;;;;;5013562;28;20025;-75
2023/01/21 12:09:30;;;;;;;9.38;6.63;;;3.90;99.90;;;;;;5011800;28;20050;-74
2023/01/21 12:12:30;;;;;;;9.70;7.82;;;3.90;99.90;;;;;;5015553;28;20026;-75
2023/01/21 12:15:03;;;;;;;8.40;6.60;;;3.90;99.90;;;;;;4994548;28;20037;-75
2023/01/21 12:18:03;;;;;;;6.80;6.20;;;3.80;99.90;;;;;;5011614;28;20029;-75
2023/01/21 12:20:40;;;;;;;11.13;9.15;;;3.90;99.90;;;;;;5013535;28;20371;-74
2023/01/21 12:23:36;;;;;;;14.43;8.10;;;4.00;99.90;;;;;;5014468;28;20026;-74
2023/01/21 12:26:40;;;;;;;14.63;7.85;;;4.10;99.90;;;;;;5016075;28;20022;-75
2023/01/21 12:29:27;;;;;;;12.38;8.27;;;4.20;99.90;;;;;;5008255;28;20021;-74
2023/01/21 12:32:18;;;;;;;9.82;7.75;;;4.20;99.90;;;;;;5015619;28;20054;-74
2023/01/21 12:34:54;;;;;;;8.93;7.40;;;4.20;99.90;;;;;;5010822;28;20042;-74
2023/01/21 12:37:37;;;;;;;8.20;6.65;;;4.20;99.90;;;;;;5014697;28;20038;-74
2023/01/21 12:40:26;;;;;;;11.65;7.85;;;4.10;99.90;;;;;;5012196;28;20426;-73
2023/01/21 12:42:56;;;;;;;10.32;7.68;;;4.10;99.90;;;;;;5011814;28;20041;-74
2023/01/21 12:45:29;;;;;;;9.43;8.05;;;4.00;99.90;;;;;;5015897;28;20490;-74
2023/01/21 12:47:57;;;;;;;10.48;9.15;;;4.10;99.90;;;;;;5013807;28;20030;-74
2023/01/21 12:50:38;;;;;;;15.27;8.90;;;4.10;99.90;;;;;;5014706;28;20049;-74
2023/01/21 12:53:30;;;;;;;14.00;7.95;;;4.10;99.90;;;;;;5010305;28;20057;-74
2023/01/21 12:56:11;;;;;;;14.35;10.40;;;4.00;99.90;;;;;;5011855;28;20442;-74
2023/01/21 12:58:47;;;;;;;17.08;10.32;;;3.90;99.90;;;;;;5013787;28;20114;-74
2023/01/21 13:01:32;;;;;;;13.77;9.80;;;4.00;99.90;;;;;;5015485;28;20029;-74
2023/01/21 13:04:16;;;;;;;21.70;11.25;;;3.90;99.90;;;;;;5014733;28;20034;-74
2023/01/21 13:07:19;;;;;;;11.70;10.50;;;3.90;99.90;;;;;;5013975;28;20033;-74